createdAt,value
2023-02-27T00:00:16.114Z,79.17
2023-02-27T00:02:46.580Z,79.03
2023-02-27T00:05:17.158Z,78.05
2023-02-27T00:07:45.923Z,79.39
2023-02-27T00:10:15.630Z,78.90
2023-02-27T00:12:44.921Z,78.33
2023-02-27T00:15:16.019Z,79.76
2023-02-27T00:17:45.437Z,78.96
2023-02-27T00:20:18.978Z,78.84
2023-02-27T00:22:48.089Z,78.96
2023-02-27T00:25:17.074Z,78.57
2023-02-27T00:27:45.859Z,78.76
2023-02-27T00:30:16.665Z,79.20
2023-02-27T00:32:45.618Z,78.69
2023-02-27T00:35:14.457Z,78.87
2023-02-27T00:37:44.277Z,78.42
2023-02-27T00:40:14.405Z,78.64
2023-02-27T00:42:43.047Z,79.76
2023-02-27T00:45:12.384Z,78.48
2023-02-27T00:47:40.850Z,78.20
2023-02-27T00:50:11.330Z,78.44
2023-02-27T00:52:39.878Z,79.25
2023-02-27T00:55:11.727Z,78.25
2023-02-27T00:57:40.627Z,78.77
2023-02-27T01:00:11.702Z,79.34
2023-02-27T01:02:40.499Z,79.55
2023-02-27T01:05:10.324Z,80.17
2023-02-27T01:07:38.947Z,80.25
2023-02-27T01:10:12.178Z,78.79
2023-02-27T01:12:41.609Z,79.35
2023-02-27T01:15:12.497Z,80.61
2023-02-27T01:17:41.157Z,78.89
2023-02-27T01:20:12.930Z,79.27
2023-02-27T01:22:41.773Z,79.26
2023-02-27T01:25:12.381Z,79.38
2023-02-27T01:27:40.885Z,78.23
2023-02-27T01:30:12.861Z,79.12
2023-02-27T01:32:41.441Z,78.69
2023-02-27T01:35:10.816Z,79.91
2023-02-27T01:37:39.904Z,79.24
2023-02-27T01:40:11.678Z,79.71
2023-02-27T01:42:40.094Z,79.81
2023-02-27T01:45:33.028Z,79.12
2023-02-27T01:48:10.639Z,80.09
2023-02-27T01:50:44.514Z,80.15
2023-02-27T01:53:13.248Z,79.82
2023-02-27T01:55:43.999Z,78.83
2023-02-27T01:58:16.039Z,79.09
2023-02-27T02:00:44.951Z,79.69
2023-02-27T02:03:25.278Z,79.93
2023-02-27T02:05:56.948Z,79.11
2023-02-27T02:08:28.808Z,79.72
2023-02-27T02:11:00.096Z,79.64
2023-02-27T02:13:29.511Z,79.14
2023-02-27T02:16:15.465Z,79.78
2023-02-27T02:18:55.850Z,79.91
2023-02-27T02:22:14.438Z,80.19
2023-02-27T02:25:43.666Z,79.48
2023-02-27T02:28:33.886Z,79.33
2023-02-27T02:31:50.389Z,79.84
2023-02-27T02:35:25.839Z,80.29
2023-02-27T02:38:44.531Z,78.57
2023-02-27T02:41:21.626Z,78.91
2023-02-27T02:44:02.018Z,79.87
2023-02-27T02:46:37.336Z,77.59
2023-02-27T02:49:18.001Z,80.09
2023-02-27T02:51:52.233Z,79.49
2023-02-27T02:54:30.264Z,79.16
2023-02-27T02:57:06.579Z,78.08
2023-02-27T02:59:40.524Z,79.55
2023-02-27T03:02:12.209Z,79.93
2023-02-27T03:04:44.319Z,79.63
2023-02-27T03:07:18.207Z,79.55
2023-02-27T03:09:54.073Z,79.89
2023-02-27T03:12:25.653Z,79.74
2023-02-27T03:15:02.547Z,78.37
2023-02-27T03:17:42.159Z,78.14
2023-02-27T03:20:17.232Z,77.87
2023-02-27T03:22:49.543Z,78.16
2023-02-27T03:25:21.118Z,77.19
2023-02-27T03:27:54.605Z,76.98
2023-02-27T03:30:33.031Z,77.25
2023-02-27T03:33:09.049Z,76.71
2023-02-27T03:35:46.717Z,78.26
2023-02-27T03:38:25.274Z,77.13
2023-02-27T03:41:05.331Z,76.91
2023-02-27T03:43:47.003Z,77.13
2023-02-27T03:46:19.372Z,76.10
2023-02-27T03:48:48.585Z,76.57
2023-02-27T03:51:21.323Z,76.27
2023-02-27T03:53:56.142Z,74.84
2023-02-27T03:56:30.739Z,75.14
2023-02-27T03:58:59.771Z,75.72
2023-02-27T04:01:28.974Z,76.60
2023-02-27T04:04:02.773Z,74.69
2023-02-27T04:06:50.341Z,75.72
2023-02-27T04:09:28.525Z,76.23
2023-02-27T04:12:34.774Z,76.05
2023-02-27T04:15:17.788Z,75.85
2023-02-27T04:17:59.066Z,75.48
2023-02-27T04:20:44.236Z,75.89
2023-02-27T04:23:19.483Z,75.44
2023-02-27T04:26:04.021Z,74.93
2023-02-27T04:28:44.171Z,76.43
2023-02-27T04:31:21.061Z,75.52
2023-02-27T04:33:57.749Z,75.11
2023-02-27T04:36:32.735Z,75.61
2023-02-27T04:39:06.713Z,75.20
2023-02-27T04:41:40.848Z,75.35
2023-02-27T04:44:13.199Z,75.65
2023-02-27T04:46:45.098Z,75.61
2023-02-27T04:49:20.322Z,75.89
2023-02-27T04:51:54.551Z,76.64
2023-02-27T04:54:29.699Z,75.94
2023-02-27T04:57:03.301Z,75.54
2023-02-27T04:59:37.566Z,76.26
2023-02-27T05:02:13.735Z,75.66
2023-02-27T05:04:45.175Z,75.68
2023-02-27T05:07:19.057Z,77.14
2023-02-27T05:09:55.345Z,76.26
2023-02-27T05:12:30.591Z,76.01
2023-02-27T05:15:06.969Z,75.94
2023-02-27T05:17:40.996Z,75.90
2023-02-27T05:20:12.727Z,76.64
2023-02-27T05:22:48.693Z,77.05
2023-02-27T05:25:28.477Z,76.28
2023-02-27T05:28:04.372Z,77.53
2023-02-27T05:30:40.897Z,76.80
2023-02-27T05:33:16.059Z,76.83
2023-02-27T05:35:51.500Z,77.98
2023-02-27T05:38:28.340Z,78.47
2023-02-27T05:41:03.243Z,77.56
2023-02-27T05:43:36.715Z,78.52
2023-02-27T05:46:11.885Z,78.81
2023-02-27T05:48:44.905Z,78.83
2023-02-27T05:51:16.299Z,79.73
2023-02-27T05:53:51.389Z,79.20
2023-02-27T05:56:22.995Z,78.10
2023-02-27T05:58:56.787Z,79.04
2023-02-27T06:01:26.705Z,79.04
2023-02-27T06:03:55.579Z,78.32
2023-02-27T06:06:24.508Z,78.21
2023-02-27T06:08:53.003Z,79.20
2023-02-27T06:11:21.461Z,79.98
2023-02-27T06:13:49.921Z,78.81
2023-02-27T06:16:18.664Z,78.96
2023-02-27T06:18:48.768Z,78.78
2023-02-27T06:21:17.319Z,79.06
2023-02-27T06:23:45.789Z,79.13
2023-02-27T06:26:14.434Z,79.03
2023-02-27T06:28:43.475Z,78.29
2023-02-27T06:31:12.266Z,79.33
2023-02-27T06:33:42.258Z,78.85
2023-02-27T06:36:12.113Z,79.53
2023-02-27T06:38:40.583Z,79.22
2023-02-27T06:41:10.245Z,79.43
2023-02-27T06:43:38.686Z,79.95
2023-02-27T06:46:07.534Z,80.81
2023-02-27T06:48:36.030Z,79.79
2023-02-27T06:51:05.227Z,80.29
2023-02-27T06:53:35.080Z,80.41
2023-02-27T06:56:03.757Z,80.25
2023-02-27T06:58:32.173Z,80.67
2023-02-27T07:01:01.140Z,80.15
2023-02-27T07:03:29.716Z,80.01
2023-02-27T07:05:58.767Z,80.23
2023-02-27T07:08:27.374Z,80.11
2023-02-27T07:10:57.215Z,79.52
2023-02-27T07:13:25.721Z,80.79
2023-02-27T07:15:54.348Z,79.51
2023-02-27T07:18:23.600Z,79.42
2023-02-27T07:20:55.209Z,79.31
2023-02-27T07:23:24.098Z,78.32
2023-02-27T07:25:52.969Z,79.60
2023-02-27T07:28:22.871Z,81.07
2023-02-27T07:30:51.400Z,80.53
2023-02-27T07:33:19.924Z,80.65
2023-02-27T07:35:48.461Z,79.46
2023-02-27T07:38:19.025Z,80.22
2023-02-27T07:40:47.715Z,79.80
2023-02-27T07:43:16.826Z,80.35
2023-02-27T07:45:46.800Z,79.23
2023-02-27T07:48:15.251Z,78.53
2023-02-27T07:50:43.700Z,79.88
2023-02-27T07:53:13.457Z,79.30
2023-02-27T07:55:42.448Z,79.98
2023-02-27T07:58:11.204Z,78.55
2023-02-27T08:00:39.698Z,79.48
2023-02-27T08:03:10.278Z,79.01
2023-02-27T08:05:38.745Z,78.98
2023-02-27T08:08:08.246Z,79.33
2023-02-27T08:10:36.685Z,78.94
2023-02-27T08:13:05.614Z,79.22
2023-02-27T08:15:34.139Z,79.34
2023-02-27T08:18:02.607Z,79.23
2023-02-27T08:20:32.669Z,79.58
2023-02-27T08:23:01.116Z,79.29
2023-02-27T08:25:30.254Z,79.47
2023-02-27T08:27:59.246Z,79.06
2023-02-27T08:30:27.939Z,78.64
2023-02-27T08:32:57.099Z,78.74
2023-02-27T08:35:25.886Z,78.00
2023-02-27T08:37:55.951Z,77.48
2023-02-27T08:40:24.434Z,76.49
2023-02-27T08:42:53.016Z,76.89
2023-02-27T08:45:21.488Z,76.47
2023-02-27T08:47:49.965Z,77.45
2023-02-27T08:50:18.806Z,77.54
2023-02-27T08:52:47.249Z,76.90
2023-02-27T08:55:17.340Z,76.28
2023-02-27T08:57:45.814Z,75.34
2023-02-27T09:00:16.517Z,75.06
2023-02-27T09:02:45.363Z,75.28
2023-02-27T09:05:14.334Z,73.23
2023-02-27T09:07:43.371Z,74.58
2023-02-27T09:10:13.801Z,75.26
2023-02-27T09:12:44.014Z,75.19
2023-02-27T09:15:13.289Z,75.87
2023-02-27T09:17:42.062Z,74.89
2023-02-27T09:20:12.603Z,74.90
2023-02-27T09:22:41.276Z,74.04
2023-02-27T09:25:10.967Z,74.47
2023-02-27T09:27:39.403Z,74.60
2023-02-27T09:30:11.822Z,75.19
2023-02-27T09:32:40.300Z,74.89
2023-02-27T09:35:10.524Z,73.40
2023-02-27T09:37:39.439Z,73.78
2023-02-27T09:40:09.351Z,73.50
2023-02-27T09:42:45.468Z,73.22
2023-02-27T09:45:24.787Z,73.52
2023-02-27T09:47:56.921Z,73.62
2023-02-27T09:50:41.187Z,72.74
2023-02-27T09:53:21.347Z,72.50
2023-02-27T09:55:50.909Z,71.32
2023-02-27T09:58:34.123Z,72.01
2023-02-27T10:01:14.890Z,72.75
2023-02-27T10:04:18.457Z,70.72
2023-02-27T10:06:52.689Z,69.77
2023-02-27T10:09:36.434Z,69.80
2023-02-27T10:12:33.420Z,70.04
2023-02-27T10:15:08.058Z,70.16
2023-02-27T10:17:43.648Z,69.10
2023-02-27T10:20:25.464Z,68.82
2023-02-27T10:22:55.675Z,69.20
2023-02-27T10:25:31.747Z,69.54
2023-02-27T10:28:12.993Z,67.82
2023-02-27T10:30:42.179Z,68.62
2023-02-27T10:33:23.118Z,68.99
2023-02-27T10:35:54.146Z,69.94
2023-02-27T10:38:33.472Z,68.53
2023-02-27T10:41:03.446Z,68.27
2023-02-27T10:43:32.118Z,65.61
2023-02-27T10:46:03.846Z,66.65
2023-02-27T10:48:34.875Z,67.84
2023-02-27T10:51:23.686Z,68.32
2023-02-27T10:53:53.819Z,70.17
2023-02-27T10:56:27.849Z,68.55
2023-02-27T10:59:05.582Z,65.77
2023-02-27T11:01:45.714Z,67.29
2023-02-27T11:04:15.903Z,66.96
2023-02-27T11:06:44.933Z,64.67
2023-02-27T11:09:22.118Z,65.51
2023-02-27T11:11:51.373Z,66.51
2023-02-27T11:14:30.899Z,62.86
2023-02-27T11:17:01.898Z,65.82
2023-02-27T11:19:37.455Z,66.15
2023-02-27T11:22:08.974Z,65.57
2023-02-27T11:24:37.404Z,64.69
2023-02-27T11:27:22.070Z,65.54
2023-02-27T11:30:01.823Z,62.58
2023-02-27T11:32:41.999Z,62.87
2023-02-27T11:35:24.740Z,62.69
2023-02-27T11:37:56.232Z,61.43
2023-02-27T11:40:31.827Z,62.76
2023-02-27T11:43:06.263Z,63.11
2023-02-27T11:46:13.568Z,62.13
2023-02-27T11:48:33.257Z,61.71
2023-02-27T11:51:34.384Z,62.51
2023-02-27T11:54:32.711Z,63.45
2023-02-27T11:57:05.374Z,63.21
2023-02-27T11:59:45.775Z,62.07
2023-02-27T12:02:23.839Z,64.52
2023-02-27T12:04:56.887Z,62.66
2023-02-27T12:07:34.117Z,61.79
2023-02-27T12:10:09.042Z,60.93
2023-02-27T12:12:48.623Z,62.04
2023-02-27T12:15:29.067Z,62.90
2023-02-27T12:18:08.351Z,62.24
2023-02-27T12:20:48.933Z,61.43
2023-02-27T12:23:24.750Z,62.89
2023-02-27T12:26:01.755Z,62.77
2023-02-27T12:28:44.402Z,63.72
2023-02-27T12:31:32.410Z,62.95
2023-02-27T12:34:09.463Z,61.27
2023-02-27T12:36:38.544Z,62.65
2023-02-27T12:39:20.410Z,62.88
2023-02-27T12:42:25.889Z,63.64
2023-02-27T12:45:24.240Z,63.63
2023-02-27T12:48:03.373Z,61.49
2023-02-27T12:50:47.663Z,62.02
2023-02-27T12:53:33.308Z,62.46
2023-02-27T12:56:12.849Z,62.67
2023-02-27T12:58:51.926Z,63.04
2023-02-27T13:01:35.239Z,62.40
2023-02-27T13:04:19.029Z,63.00
2023-02-27T13:06:54.083Z,62.78
2023-02-27T13:09:35.330Z,63.05
2023-02-27T13:12:20.966Z,64.75
2023-02-27T13:14:56.925Z,63.06
2023-02-27T13:17:33.931Z,64.68
2023-02-27T13:20:06.930Z,61.58
2023-02-27T13:22:43.400Z,62.30
2023-02-27T13:25:16.582Z,61.83
2023-02-27T13:27:50.510Z,63.84
2023-02-27T13:30:26.886Z,63.47
2023-02-27T13:33:07.405Z,63.06
2023-02-27T13:35:49.339Z,62.51
2023-02-27T13:38:43.979Z,62.61
2023-02-27T13:41:40.169Z,64.09
2023-02-27T13:44:50.322Z,64.50
2023-02-27T13:47:43.582Z,63.51
2023-02-27T13:50:52.597Z,65.00
2023-02-27T13:53:24.597Z,65.51
2023-02-27T13:55:58.195Z,62.82
2023-02-27T13:58:26.745Z,64.56
2023-02-27T14:01:18.300Z,63.36
2023-02-27T14:03:56.908Z,65.07
2023-02-27T14:06:27.411Z,65.06
2023-02-27T14:09:08.895Z,63.95
2023-02-27T14:11:53.761Z,63.35
2023-02-27T14:14:47.070Z,62.52
2023-02-27T14:17:45.127Z,62.52
2023-02-27T14:20:36.385Z,63.91
2023-02-27T14:23:21.848Z,63.92
2023-02-27T14:25:55.776Z,62.67
2023-02-27T14:28:32.776Z,63.38
2023-02-27T14:31:04.502Z,64.46
2023-02-27T14:33:41.866Z,65.00
2023-02-27T14:36:16.946Z,62.92
2023-02-27T14:38:45.535Z,65.36
2023-02-27T14:41:32.863Z,64.53
2023-02-27T14:44:02.433Z,63.46
2023-02-27T14:46:33.531Z,64.29
2023-02-27T14:49:06.662Z,63.48
2023-02-27T14:51:38.767Z,64.83
2023-02-27T14:54:14.905Z,64.41
2023-02-27T14:56:55.302Z,62.47
2023-02-27T14:59:26.966Z,63.30
2023-02-27T15:01:59.091Z,64.24
2023-02-27T15:04:32.800Z,62.04
2023-02-27T15:07:02.253Z,62.53
2023-02-27T15:09:37.328Z,64.34
2023-02-27T15:12:06.858Z,63.65
2023-02-27T15:14:38.642Z,63.05
2023-02-27T15:17:17.845Z,63.62
2023-02-27T15:19:53.648Z,61.59
2023-02-27T15:22:38.132Z,63.16
2023-02-27T15:25:08.535Z,64.28
2023-02-27T15:27:38.336Z,63.05
2023-02-27T15:30:09.707Z,62.03
2023-02-27T15:32:43.480Z,65.14
2023-02-27T15:35:21.650Z,63.29
2023-02-27T15:37:55.157Z,62.58
2023-02-27T15:40:28.073Z,64.06
2023-02-27T15:42:58.016Z,63.35
2023-02-27T15:45:30.967Z,65.46
2023-02-27T15:47:59.993Z,63.91
2023-02-27T15:50:35.396Z,63.23
2023-02-27T15:53:12.731Z,64.53
2023-02-27T15:55:44.446Z,63.49
2023-02-27T15:58:24.569Z,63.05
2023-02-27T16:01:00.821Z,63.00
2023-02-27T16:03:35.806Z,64.00
2023-02-27T16:06:12.407Z,63.16
2023-02-27T16:08:48.164Z,63.67
2023-02-27T16:11:20.989Z,64.51
2023-02-27T16:13:50.616Z,64.21
2023-02-27T16:16:35.422Z,63.42
2023-02-27T16:19:18.768Z,65.41
2023-02-27T16:22:14.579Z,63.34
2023-02-27T16:24:44.015Z,63.01
2023-02-27T16:27:20.580Z,63.80
2023-02-27T16:29:49.426Z,63.72
2023-02-27T16:32:26.481Z,62.88
2023-02-27T16:35:03.916Z,63.32
2023-02-27T16:37:38.237Z,64.81
2023-02-27T16:40:17.201Z,64.99
2023-02-27T16:42:46.966Z,64.13
2023-02-27T16:45:18.583Z,63.23
2023-02-27T16:47:50.744Z,64.34
2023-02-27T16:50:25.639Z,64.61
2023-02-27T16:52:55.678Z,62.80
2023-02-27T16:55:24.655Z,63.63
2023-02-27T16:57:53.345Z,64.78
2023-02-27T17:00:23.641Z,63.23
2023-02-27T17:02:52.710Z,65.04
2023-02-27T17:05:21.321Z,64.47
2023-02-27T17:07:50.026Z,64.74
2023-02-27T17:10:24.633Z,66.45
2023-02-27T17:12:53.525Z,65.34
2023-02-27T17:15:22.335Z,65.87
2023-02-27T17:17:50.802Z,66.55
2023-02-27T17:20:19.480Z,67.40
2023-02-27T17:22:47.894Z,66.32
2023-02-27T17:25:16.668Z,65.14
2023-02-27T17:27:46.639Z,65.13
2023-02-27T17:30:16.288Z,63.32
2023-02-27T17:32:44.810Z,63.76
2023-02-27T17:35:13.599Z,63.27
2023-02-27T17:37:42.113Z,65.06
2023-02-27T17:40:12.868Z,63.25
2023-02-27T17:42:41.402Z,64.10
2023-02-27T17:45:12.710Z,62.65
2023-02-27T17:47:41.461Z,63.72
2023-02-27T17:50:11.779Z,65.36
2023-02-27T17:52:40.819Z,64.00
2023-02-27T17:55:11.386Z,65.60
2023-02-27T17:57:41.027Z,65.46
2023-02-27T18:00:16.175Z,64.11
2023-02-27T18:02:46.220Z,63.70
2023-02-27T18:05:15.196Z,63.30
2023-02-27T18:07:43.667Z,65.34
2023-02-27T18:10:16.016Z,64.65
2023-02-27T18:12:44.534Z,63.76
2023-02-27T18:15:14.389Z,65.28
2023-02-27T18:17:44.618Z,66.02
2023-02-27T18:20:14.139Z,64.91
2023-02-27T18:22:42.569Z,66.61
2023-02-27T18:25:11.256Z,67.36
2023-02-27T18:27:40.105Z,64.92
2023-02-27T18:30:10.336Z,66.46
2023-02-27T18:32:40.388Z,65.89
2023-02-27T18:35:10.466Z,65.20
2023-02-27T18:37:39.156Z,67.32
2023-02-27T18:40:11.972Z,66.97
2023-02-27T18:42:40.530Z,68.14
2023-02-27T18:45:10.654Z,68.10
2023-02-27T18:47:40.511Z,66.43
2023-02-27T18:50:10.322Z,68.53
2023-02-27T18:52:39.292Z,68.30
2023-02-27T18:55:08.858Z,67.77
2023-02-27T18:57:37.344Z,68.18
2023-02-27T19:00:08.560Z,68.61
2023-02-27T19:02:41.623Z,67.50
2023-02-27T19:05:14.830Z,66.99
2023-02-27T19:07:43.733Z,67.21
2023-02-27T19:10:13.126Z,68.62
2023-02-27T19:12:42.217Z,67.27
2023-02-27T19:15:12.400Z,68.19
2023-02-27T19:17:40.838Z,66.63
2023-02-27T19:20:16.438Z,65.69
2023-02-27T19:22:45.639Z,67.25
2023-02-27T19:25:14.093Z,68.27
2023-02-27T19:27:44.796Z,67.61
2023-02-27T19:30:14.563Z,68.45
2023-02-27T19:32:43.026Z,69.08
2023-02-27T19:35:15.262Z,67.59
2023-02-27T19:37:46.873Z,67.84
2023-02-27T19:40:16.482Z,68.00
2023-02-27T19:42:45.783Z,69.21
2023-02-27T19:45:14.455Z,69.27
2023-02-27T19:47:42.910Z,70.30
2023-02-27T19:50:14.309Z,69.94
2023-02-27T19:52:43.083Z,69.56
2023-02-27T19:55:12.376Z,70.16
2023-02-27T19:57:40.898Z,69.53
2023-02-27T20:00:13.140Z,69.12
2023-02-27T20:02:41.929Z,70.41
2023-02-27T20:05:12.860Z,71.44
2023-02-27T20:07:42.666Z,71.47
2023-02-27T20:10:13.280Z,70.78
2023-02-27T20:12:41.882Z,70.05
2023-02-27T20:15:11.980Z,70.45
2023-02-27T20:17:42.048Z,71.23
2023-02-27T20:20:13.997Z,72.16
2023-02-27T20:22:44.653Z,71.73
2023-02-27T20:25:14.004Z,71.09
2023-02-27T20:27:42.609Z,72.58
2023-02-27T20:30:13.186Z,72.78
2023-02-27T20:32:41.694Z,71.67
2023-02-27T20:35:12.614Z,71.83
2023-02-27T20:37:41.138Z,72.38
2023-02-27T20:40:11.825Z,71.88
2023-02-27T20:42:40.580Z,73.05
2023-02-27T20:45:10.297Z,72.19
2023-02-27T20:47:39.127Z,70.90
2023-02-27T20:50:09.223Z,71.60
2023-02-27T20:52:39.058Z,70.98
2023-02-27T20:55:08.714Z,70.69
2023-02-27T20:57:37.405Z,70.79
2023-02-27T21:00:11.322Z,72.49
2023-02-27T21:02:39.867Z,70.65
2023-02-27T21:05:09.503Z,71.82
2023-02-27T21:07:39.319Z,72.41
2023-02-27T21:10:08.829Z,70.26
2023-02-27T21:12:37.346Z,71.91
2023-02-27T21:15:07.437Z,72.81
2023-02-27T21:17:36.241Z,72.30
2023-02-27T21:20:06.860Z,71.75
2023-02-27T21:22:36.435Z,71.05
2023-02-27T21:25:07.306Z,71.18
2023-02-27T21:27:35.820Z,72.32
2023-02-27T21:30:06.060Z,71.12
2023-02-27T21:32:34.572Z,71.74
2023-02-27T21:35:03.322Z,72.86
2023-02-27T21:37:31.770Z,71.36
2023-02-27T21:40:02.092Z,71.04
2023-02-27T21:42:32.272Z,71.23
2023-02-27T21:45:00.720Z,71.56
2023-02-27T21:47:30.568Z,71.69
2023-02-27T21:49:59.065Z,70.96
2023-02-27T21:52:27.764Z,72.17
2023-02-27T21:54:56.447Z,70.68
2023-02-27T21:57:25.133Z,71.37
2023-02-27T21:59:54.981Z,72.21
2023-02-27T22:02:23.816Z,72.23
2023-02-27T22:04:52.312Z,72.05
2023-02-27T22:07:20.821Z,72.01
2023-02-27T22:09:49.974Z,71.42
2023-02-27T22:12:19.035Z,71.08
2023-02-27T22:14:47.684Z,71.95
2023-02-27T22:17:17.649Z,70.93
2023-02-27T22:19:46.334Z,70.99
2023-02-27T22:22:14.850Z,71.93
2023-02-27T22:24:43.317Z,71.96
2023-02-27T22:27:11.823Z,71.55
2023-02-27T22:29:42.273Z,71.95
2023-02-27T22:32:11.527Z,71.48
2023-02-27T22:34:41.402Z,70.76
2023-02-27T22:37:09.864Z,70.89
2023-02-27T22:39:38.452Z,71.09
2023-02-27T22:42:07.340Z,71.36
2023-02-27T22:44:35.998Z,72.54
2023-02-27T22:47:04.746Z,71.72
2023-02-27T22:49:33.424Z,71.40
2023-02-27T22:52:03.241Z,72.21
2023-02-27T22:54:32.096Z,71.75
2023-02-27T22:57:00.584Z,72.27
2023-02-27T22:59:29.537Z,72.41
2023-02-27T23:01:58.052Z,72.04
2023-02-27T23:04:27.286Z,72.35
2023-02-27T23:06:56.743Z,71.71
2023-02-27T23:09:28.060Z,72.77
2023-02-27T23:11:57.245Z,72.85
2023-02-27T23:14:25.693Z,72.91
2023-02-27T23:16:54.133Z,72.29
2023-02-27T23:19:24.074Z,73.51
2023-02-27T23:21:52.759Z,72.79
2023-02-27T23:24:21.678Z,72.42
2023-02-27T23:26:53.228Z,72.75
2023-02-27T23:29:22.048Z,72.76
2023-02-27T23:31:50.608Z,72.31
2023-02-27T23:34:19.173Z,73.41
2023-02-27T23:36:48.142Z,72.67
2023-02-27T23:39:16.601Z,71.85
2023-02-27T23:41:45.042Z,72.20
2023-02-27T23:44:15.087Z,73.24
2023-02-27T23:46:43.799Z,73.84
2023-02-27T23:49:13.059Z,73.59
2023-02-27T23:51:41.738Z,73.76
2023-02-27T23:54:10.601Z,72.52
2023-02-27T23:56:39.088Z,73.67
2023-02-27T23:59:08.734Z,73.79
